Flight Track Log - Related Links

Times and Time Zones

All times are in EDT time to prevent confusion due to time zone crossing. See the EJA951 flight status page for this flight to view local times or setup timezone preferences in your user account.

Time Position Orientation Groundspeed Altitude Reporting Facility
EDT Latitude Longitude Course Direction KTS MPH feet Rate Location/Type
Sun 02:14:32 PM 47.5117 -122.2878 147° Southeast 173 199 1,400  Level Seattle Center
Sun 02:14:50 PM 47.4989 -122.2756 147° Southeast 187 215 2,000 2,051 Climbing Seattle Center
Sun 02:15:51 PM 47.4697 -122.2136 125° Southeast 210 242 4,100 2,195 Climbing Seattle Center
Sun 02:16:53 PM 47.4625 -122.1122 96° East 245 282 6,500 2,878 Climbing Seattle Center
Sun 02:17:54 PM 47.4525 -121.9853 97° East 286 329 10,000 2,508 Climbing Seattle Center
Sun 02:18:55 PM 47.4422 -121.8631 97° East 307 353 11,600 1,707 Climbing Seattle Center
Sun 02:19:57 PM 47.4300 -121.7197 97° East 349 402 13,500 1,951 Climbing Seattle Center
Sun 02:20:58 PM 47.4278 -121.5586 91° East 366 421 15,600 1,967 Climbing Seattle Center
Sun 02:21:59 PM 47.4256 -121.4042 91° East 378 435 17,500 1,854 Climbing Seattle Center
Sun 02:23:01 PM 47.4214 -121.2622 92° East 386 444 19,400 1,659 Climbing Seattle Center
Sun 02:24:02 PM 47.4194 -121.1019 91° East 394 453 20,900 1,623 Climbing Seattle Center
Sun 02:25:03 PM 47.4150 -120.9008 92° East 413 475 22,700 1,756 Climbing Seattle Center
Sun 02:26:05 PM 47.4136 -120.7469 91° East 422 486 24,500 1,610 Climbing Seattle Center
Sun 02:27:06 PM 47.4081 -120.5728 93° East 426 490 26,000 1,574 Climbing Seattle Center
Sun 02:28:07 PM 47.4042 -120.3936 92° East 437 503 27,700 1,512 Climbing Seattle Center
Sun 02:29:09 PM 47.4006 -120.2111 92° East 444 511 29,100 1,366 Climbing Seattle Center
Sun 02:30:10 PM 47.3961 -119.9856 92° East 457 526 30,500 934 Climbing Seattle Center
Sun 02:31:11 PM 47.3875 -119.7894 94° East 478 550 31,000 246 Climbing Seattle Center
Sun 02:32:12 PM 47.3828 -119.5942 92° East 479 551 31,000  Level Seattle Center
Sun 02:33:14 PM 47.3742 -119.3994 94° East 480 552 31,000  Level Seattle Center
Sun 02:34:15 PM 47.3622 -119.2072 95° East 475 547 31,000  Level Seattle Center
Sun 02:35:16 PM 47.3494 -119.0147 96° East 474 545 31,000  Level Seattle Center
Sun 02:36:18 PM 47.3367 -118.8219 96° East 475 547 31,000  Level Seattle Center
Sun 02:37:19 PM 47.3233 -118.6292 96° East 475 547 31,000  Level Seattle Center
Sun 02:38:21 PM 47.3064 -118.3972 96° East 475 547 31,000  Level Seattle Center
Sun 02:39:22 PM 47.2925 -118.2042 96° East 478 550 31,000  Level Seattle Center
Sun 02:40:23 PM 47.2783 -118.0114 96° East 478 550 31,000  Level Seattle Center
Sun 02:41:24 PM 47.2644 -117.8172 96° East 480 552 31,000  Level Seattle Center
Sun 02:42:26 PM 47.2494 -117.6239 96° East 480 552 31,000  Level Seattle Center
Sun 02:43:27 PM 47.2342 -117.4297 97° East 484 557 31,000  Level Seattle Center
Sun 02:44:28 PM 47.2214 -117.2358 95° East 483 556 31,000  Level Seattle Center
Sun 02:45:30 PM 47.2011 -117.0053 97° East 480 552 31,000 -293 Level Seattle Center
Sun 02:46:31 PM 47.1869 -116.8111 96° East 483 556 30,400 -1,082 Descending Seattle Center
Sun 02:47:32 PM 47.1686 -116.6167 98° East 485 558 28,800 -1,512 Descending Seattle Center
Sun 02:48:34 PM 47.1525 -116.4300 97° East 471 542 27,300 -1,366 Descending Seattle Center
Sun 02:49:35 PM 47.1356 -116.2489 98° East 454 522 26,000 -1,279 Descending Seattle Center
Sun 02:50:36 PM 47.1206 -116.0758 97° East 436 502 24,700 -1,279 Descending Seattle Center
Sun 02:51:37 PM 47.1042 -115.9078 98° East 421 484 23,400 -1,317 Descending Seattle Center
Sun 02:52:39 PM 47.0872 -115.7342 98° East 429 494 22,000 -1,417 Descending Seattle Center
Sun 02:53:44 PM 47.0675 -115.5203 98° East 437 503 20,400 -1,279 Descending Salt Lake Center
Sun 02:54:41 PM 47.0542 -115.3447 96° East 436 502 19,400 -1,714 Descending Seattle Center
Sun 02:55:43 PM 47.0350 -115.1731 99° East 432 497 17,000 -2,195 Descending Seattle Center
Sun 02:56:44 PM 47.0178 -115.0053 99° East 425 489 14,900 -984 Descending Seattle Center
Sun 02:57:45 PM 47.0006 -114.8478 99° East 414 476 15,000 49 Climbing Seattle Center
Sun 02:58:47 PM 46.9856 -114.7039 99° East 392 451 15,000 -439 Level Seattle Center
Sun 02:59:48 PM 46.9689 -114.5608 100° East 376 433 14,100 -1,475 Descending Seattle Center
Sun 03:00:49 PM 46.9544 -114.4197 98° East 366 421 12,000 -2,195 Descending Seattle Center
Sun 03:01:51 PM 46.9631 -114.2992 84° East 334 384 9,600 -2,049 Descending Seattle Center
Sun 03:02:52 PM 47.0153 -114.2169 47° Northeast 298 343 7,800 -1,672 Descending Seattle Center
Sun 03:03:53 PM 46.9850 -114.1947 153° Southeast 210 242 6,200 -1,701 Descending Seattle Center
Sun 03:05:06 PM 46.9456 -114.1428 138° Southeast 135 155 4,000 -1,333 Descending Salt Lake Center
Sun 03:06:08 PM 46.9222 -114.1033 131° Southeast 129 148 3,200 -774 Descending Salt Lake Center

Login

Don't have an account? Register now (free) for customized features, flight alerts, and more!